Aeroporto :
LOGIN :

Iscrizione | Disclaimer

   EN    FR    IT 

 










Sommario :    VFR   VFR Marginale   IFR   IFR Intensivo   IFR Molto Intensivo
Visibilità : 
Base nubi : 
>= 8 km
>= 3000ft
5 / 8 km
1000 / 3000 ft
1500m / 5 km
500 / 1000 ft
800 / 1500m
200 / 500 ft
< 800m
< 200 ft
Simboli :   Temporali  Nebbia  Neve Forte  Precipitazioni Forti  Vento > 20 kt
SIGMETs :   Varie  Temporali  Ghiacco  Turbolenza  Onda orograficha  Ceneri Vulcaniche






- Altitudine del aeroporto : 79 ft
- Codice IATA : SPU


LDSP - Split

ULTIMO METAR :
  • 211600Z 15005KT 110V180 9999 BKN040 15/09 Q1013 NOSIG

METARs OBSOLETI :
  • 211530Z 14004KT 100V180 9999 SCT033 15/09 Q1013 RETS NOSIG
  • 211500Z 12011KT 080V140 9999 FEW023 BKN037 16/11 Q1013 NOSIG
  • 211430Z 10009KT 060V120 9999 BKN037 16/12 Q1013 NOSIG
  • 211400Z 10004KT 060V140 9999 BKN037 16/11 Q1013 NOSIG
  • 211330Z 10006KT 9999 SCT033 16/11 Q1013 NOSIG
  • 211300Z 10006KT 070V130 9999 SCT033 16/11 Q1013 NOSIG

TAF TAF LDSP
Valido dal 21 a 12 ore il 22 a 12 ore UTC


211125Z 2112/2212 10008KT 9999 FEW023 BKN027 TX15/2112Z TN10/2206Z
PROB30
TEMPO 2112/2116 5000 -TSRA FEW020CB FEW023TCU BKN027



MetMap, La meteo Aeronautica in un colpo d'occhio ! - Copyright ORBIFLY Dicembre 2007 - Disclaimer

ORBIFLY MET'MAP TEAM :

Programmazione e sviluppo : Alexandra Zaïnal
Concezione e sviluppo : Baudouin d'Aumeries
Co-Programmazione e sviluppo : Marc-Olivier Méhu
Supporto tecnico e logistico : Manuel Goepfert
Aiuto per la traduzione : Arnaldo La Scala

Contatto : metmap@orbifly.com




FONTI E CREDITI :

   NOAA